Darstellungsparameter: Aktuell verwendete Einstellungen:
Skalierung der Graphiken ... ?
xyx+y,   Skalierungsfaktor:      Skalierung: Modus: x, Faktor: 1
Darstellungszeitraum ... ?
Vom - - bis: - -   Zeitraum: 01.12.2020 - 01.12.2020
Min/Max/Avg-Anzeige ... ?
Zeige MMA aktuell
Zeige MMA Monat
Zeige MMA alles
Zeige --A aktuell
Zeige --A Monat
Zeige --A alles
Keine MMA-Anzeige
MMA:
Average (ber die Originaldaten)
MMA-Basis: 01.12.2020 - 01.12.2020
Quicknavigation für Darstellung... ?
Tage:      1T, 2T, 3T, 5T -1T -2T -3T -5T +1T +2T +3T +5T
Wochen: 1W, 2W, 3W -1W -2W -3W +1W +2W +3W
Monate: 1M, 3M, 6M -1M -3M -6M +1M +3M +6M
Jahre:    1J, 3J, 5J, 10J -1J -3J -5J -10J +1J +3J +5J +10J
Nutze für die Darstellung ... ?
Originaldaten oder Mittelwerte auf ...
Stundenbasis Tagesbasis Wochenbasis
Monatsbasis Jahresbasis      Datenbasis: Original-Daten
Darstellen als:
Statistik (Auto) Statistik J:M      Darstellung:

Der gewünschte Datumsbereich war nicht gültig/verfügbar und wurde korrigiert....
Das angegebene Enddatum (16.05.2021 23:59:59) liegt in der Zukunft.
Das angegebene Startdatum (10.05.2021 00:00:00) liegt in der Zukunft.


Zur Graphik,    zurück zur Übersicht aller Sensoren.
 
Tabellarische Datenbersicht: ?
 
Sensor: Nr:Datum:Temp:Abs-Feuchte:Windchill:Wind:
Aussen-T/F 1 01-12-2020 01:00:00 1.3 C 5.03 g/m*3 -2.07 C 11.3 km/h
2 01-12-2020 01:05:00 1.3 C 5.03 g/m*3 -2.07 C 11.3 km/h
3 01-12-2020 01:10:00 1.3 C 5.03 g/m*3 -2.07 C 11.3 km/h
4 01-12-2020 01:15:00 1.4 C 5.07 g/m*3 -2.88 C 16.1 km/h
5 01-12-2020 01:20:00 1.4 C 5.07 g/m*3 -1.57 C 9.7 km/h
6 01-12-2020 01:25:00 1.4 C 5.07 g/m*3 -0.56 C 6.4 km/h
7 01-12-2020 01:30:00 1.4 C 5.07 g/m*3 -1.57 C 9.7 km/h
8 01-12-2020 01:35:00 1.4 C 5.07 g/m*3 -0.56 C 6.4 km/h
9 01-12-2020 01:40:00 1.4 C 5.07 g/m*3 1.4 C 1.6 km/h
10 01-12-2020 01:45:00 1.4 C 5.07 g/m*3 -1.57 C 9.7 km/h
11 01-12-2020 01:50:00 1.4 C 5.07 g/m*3 -1.95 C 11.3 km/h
12 01-12-2020 01:55:00 1.4 C 5.07 g/m*3 -1.95 C 11.3 km/h
13 01-12-2020 02:00:00 1.4 C 5.07 g/m*3 1.4 C 4.8 km/h
14 01-12-2020 02:05:00 1.4 C 5.07 g/m*3 -2.29 C 12.9 km/h
15 01-12-2020 02:10:00 1.5 C 5.1 g/m*3 -0.45 C 6.4 km/h
16 01-12-2020 02:15:00 1.5 C 5.1 g/m*3 -2.17 C 12.9 km/h
17 01-12-2020 02:20:00 1.6 C 5.14 g/m*3 -2.63 C 16.1 km/h
18 01-12-2020 02:25:00 1.5 C 5.1 g/m*3 1.5 C 3.2 km/h
19 01-12-2020 02:30:00 1.5 C 5.1 g/m*3 1.5 C 3.2 km/h
20 01-12-2020 02:35:00 1.5 C 5.1 g/m*3 1.5 C 4.8 km/h
21 01-12-2020 02:40:00 1.5 C 5.1 g/m*3 -1.01 C 8.1 km/h
22 01-12-2020 02:45:00 1.5 C 5.1 g/m*3 1.5 C 3.2 km/h
23 01-12-2020 02:50:00 1.5 C 5.1 g/m*3 1.5 C 4.8 km/h
24 01-12-2020 02:55:00 1.5 C 5.1 g/m*3 -3.25 C 19.3 km/h
25 01-12-2020 03:00:00 1.5 C 5.1 g/m*3 -1.45 C 9.7 km/h
Sensor: Nr:Datum:Temp:Abs-Feuchte:Windchill:Wind:
Aussen-T/F 26 01-12-2020 03:05:00 1.5 C 5.1 g/m*3 -2.76 C 16.1 km/h
27 01-12-2020 03:10:00 1.5 C 5.1 g/m*3 -1.01 C 8.1 km/h
28 01-12-2020 03:15:00 1.6 C 5.14 g/m*3 -2.05 C 12.9 km/h
29 01-12-2020 03:20:00 1.6 C 5.14 g/m*3 -2.05 C 12.9 km/h
30 01-12-2020 03:25:00 1.6 C 5.14 g/m*3 -2.05 C 12.9 km/h
31 01-12-2020 03:30:00 1.6 C 5.14 g/m*3 -1.71 C 11.3 km/h
32 01-12-2020 03:35:00 1.7 C 5.17 g/m*3 -1.21 C 9.7 km/h
33 01-12-2020 03:40:00 1.7 C 5.17 g/m*3 -1.59 C 11.3 km/h
34 01-12-2020 03:45:00 1.7 C 5.17 g/m*3 -1.59 C 11.3 km/h
35 01-12-2020 03:50:00 1.7 C 5.17 g/m*3 -1.93 C 12.9 km/h
36 01-12-2020 03:55:00 1.7 C 5.17 g/m*3 -1.59 C 11.3 km/h
37 01-12-2020 04:00:00 1.7 C 5.17 g/m*3 -1.59 C 11.3 km/h
38 01-12-2020 04:05:00 1.7 C 5.17 g/m*3 -0.22 C 6.4 km/h
39 01-12-2020 04:10:00 1.7 C 5.17 g/m*3 -1.93 C 12.9 km/h
40 01-12-2020 04:15:00 1.7 C 5.17 g/m*3 -0.77 C 8.1 km/h
41 01-12-2020 04:20:00 1.7 C 5.17 g/m*3 -1.21 C 9.7 km/h
42 01-12-2020 04:25:00 1.7 C 5.17 g/m*3 -1.59 C 11.3 km/h
43 01-12-2020 04:30:00 1.7 C 5.17 g/m*3 -2.23 C 14.5 km/h
44 01-12-2020 04:35:00 1.8 C 5.21 g/m*3 -1.47 C 11.3 km/h
45 01-12-2020 04:40:00 1.7 C 5.17 g/m*3 -1.59 C 11.3 km/h
46 01-12-2020 04:45:00 1.8 C 5.21 g/m*3 -1.09 C 9.7 km/h
47 01-12-2020 04:50:00 1.8 C 5.21 g/m*3 -0.65 C 8.1 km/h
48 01-12-2020 04:55:00 1.8 C 5.21 g/m*3 -1.09 C 9.7 km/h
49 01-12-2020 05:00:00 1.8 C 5.21 g/m*3 1.8 C 3.2 km/h
50 01-12-2020 05:05:00 1.8 C 5.21 g/m*3 -0.1 C 6.4 km/h
Sensor: Nr:Datum:Temp:Abs-Feuchte:Windchill:Wind:
Aussen-T/F 51 01-12-2020 05:10:00 1.8 C 5.21 g/m*3 1.8 C 4.8 km/h
52 01-12-2020 05:15:00 1.8 C 5.21 g/m*3 1.8 C 4.8 km/h
53 01-12-2020 05:20:00 1.8 C 5.21 g/m*3 -1.47 C 11.3 km/h
54 01-12-2020 05:25:00 1.8 C 5.21 g/m*3 -1.09 C 9.7 km/h
55 01-12-2020 05:30:00 1.8 C 5.21 g/m*3 -0.1 C 6.4 km/h
56 01-12-2020 05:35:00 1.8 C 5.21 g/m*3 -1.09 C 9.7 km/h
57 01-12-2020 05:40:00 1.8 C 5.21 g/m*3 -0.65 C 8.1 km/h
58 01-12-2020 05:45:00 1.8 C 5.21 g/m*3 -1.47 C 11.3 km/h
59 01-12-2020 05:50:00 1.9 C 5.24 g/m*3 0.01 C 6.4 km/h
60 01-12-2020 05:55:00 1.9 C 5.24 g/m*3 1.9 C 4.8 km/h
61 01-12-2020 06:00:00 1.9 C 5.24 g/m*3 -0.54 C 8.1 km/h
62 01-12-2020 06:05:00 1.9 C 5.24 g/m*3 -1.68 C 12.9 km/h
63 01-12-2020 06:10:00 1.9 C 5.24 g/m*3 0.01 C 6.4 km/h
64 01-12-2020 06:15:00 1.9 C 5.24 g/m*3 -0.54 C 8.1 km/h
65 01-12-2020 06:20:00 1.9 C 5.24 g/m*3 -1.35 C 11.3 km/h
66 01-12-2020 06:25:00 1.9 C 5.24 g/m*3 -0.54 C 8.1 km/h
67 01-12-2020 06:30:00 2 C 5.28 g/m*3 -1.56 C 12.9 km/h
68 01-12-2020 06:35:00 2.1 C 5.31 g/m*3 0.24 C 6.4 km/h
69 01-12-2020 06:40:00 2.1 C 5.31 g/m*3 2.1 C 4.8 km/h
70 01-12-2020 06:45:00 2.1 C 5.31 g/m*3 0.24 C 6.4 km/h
71 01-12-2020 06:50:00 2.1 C 5.31 g/m*3 2.1 C 3.2 km/h
72 01-12-2020 06:55:00 2.1 C 5.31 g/m*3 2.1 C 4.8 km/h
73 01-12-2020 07:00:00 2.1 C 5.31 g/m*3 2.1 C 4.8 km/h
74 01-12-2020 07:05:00 2.1 C 5.31 g/m*3 -0.3 C 8.1 km/h
75 01-12-2020 07:10:00 2.2 C 5.41 g/m*3 2.2 C 3.2 km/h
Sensor: Nr:Datum:Temp:Abs-Feuchte:Windchill:Wind:
Aussen-T/F 76 01-12-2020 07:15:00 2.2 C 5.35 g/m*3 2.2 C 3.2 km/h
77 01-12-2020 07:20:00 2.1 C 5.31 g/m*3 2.1 C 0 km/h
78 01-12-2020 07:25:00 2.1 C 5.31 g/m*3 2.1 C 4.8 km/h
79 01-12-2020 07:30:00 2.1 C 5.31 g/m*3 2.1 C 0 km/h
80 01-12-2020 07:35:00 2.1 C 5.31 g/m*3 2.1 C 1.6 km/h
81 01-12-2020 07:40:00 2.1 C 5.31 g/m*3 2.1 C 0 km/h
82 01-12-2020 07:45:00 2.1 C 5.31 g/m*3 2.1 C 4.8 km/h
83 01-12-2020 07:50:00 2.1 C 5.31 g/m*3 2.1 C 3.2 km/h
84 01-12-2020 07:55:00 2.1 C 5.31 g/m*3 2.1 C 3.2 km/h
85 01-12-2020 08:00:00 2.1 C 5.37 g/m*3 2.1 C 3.2 km/h
86 01-12-2020 08:05:00 2.1 C 5.37 g/m*3 2.1 C 1.6 km/h
87 01-12-2020 08:10:00 2.1 C 5.37 g/m*3 2.1 C 1.6 km/h
88 01-12-2020 08:15:00 2.1 C 5.37 g/m*3 2.1 C 0 km/h
89 01-12-2020 08:20:00 2.1 C 5.37 g/m*3 2.1 C 0 km/h
90 01-12-2020 08:25:00 2.1 C 5.37 g/m*3 2.1 C 0 km/h
91 01-12-2020 08:30:00 2.1 C 5.37 g/m*3 2.1 C 0 km/h
92 01-12-2020 08:35:00 2.1 C 5.37 g/m*3 2.1 C 0 km/h
93 01-12-2020 08:40:00 2.1 C 5.37 g/m*3 2.1 C 1.6 km/h
94 01-12-2020 08:45:00 2.2 C 5.41 g/m*3 0.36 C 6.4 km/h
95 01-12-2020 08:50:00 2.2 C 5.41 g/m*3 2.2 C 0 km/h
96 01-12-2020 08:55:00 2.2 C 5.41 g/m*3 -0.18 C 8.1 km/h
97 01-12-2020 09:00:00 2.3 C 5.44 g/m*3 0.47 C 6.4 km/h
98 01-12-2020 09:05:00 2.3 C 5.44 g/m*3 2.3 C 1.6 km/h
99 01-12-2020 09:10:00 2.3 C 5.44 g/m*3 2.3 C 1.6 km/h
100 01-12-2020 09:15:00 2.3 C 5.44 g/m*3 2.3 C 0 km/h
Sensor: Nr:Datum:Temp:Abs-Feuchte:Windchill:Wind:
Aussen-T/F 101 01-12-2020 09:20:00 2.3 C 5.44 g/m*3 2.3 C 0 km/h
102 01-12-2020 09:25:00 2.3 C 5.44 g/m*3 2.3 C 0 km/h
103 01-12-2020 09:30:00 2.3 C 5.44 g/m*3 2.3 C 1.6 km/h
104 01-12-2020 09:35:00 2.3 C 5.44 g/m*3 2.3 C 0 km/h
105 01-12-2020 09:40:00 2.3 C 5.44 g/m*3 2.3 C 0 km/h
106 01-12-2020 09:45:00 2.4 C 5.48 g/m*3 2.4 C 0 km/h
107 01-12-2020 09:50:00 2.4 C 5.48 g/m*3 2.4 C 0 km/h

Legende:
   Min
   Max


Maximal/Minimal-Werte vom 01.12.2020 - 01.12.2020

Sensor Min Max Avg
Temp
(Aussen-T/F)
1.3 °C
01-12-2020  01:00:00
2.4 °C
01-12-2020  09:45:00
1.84 °C
Abs-Feuchte
(Aussen-T/F)
5.03 g/m*3
01-12-2020  01:00:00
5.48 g/m*3
01-12-2020  09:45:00
5.19 g/m*3
Windchill
(Aussen-T/F)
-3.25 C
01-12-2020  02:55:00
2.4 C
01-12-2020  09:45:00
0.12 C

Die Daten stammen von einer Davis Vantage Pro 2 Wetter-Station und werden unter Linux mit der Software wview2wettercgi und aufbereitet. Alle Angaben erfolgen ohne Gewähr für ihre Vollständigkeit oder Richtigkeit.
Kontakt: Rainer Krienke krienke@uni-koblenz.de . Meine Webseiten an der Uni Koblenz oder privat.
Version: $Revision: 0.78 $